Time;durP1;ratioP1;P1;durP2;ratioP2;P2;SDS_P1;SDS_P2;PMS_P1;PMS_P2;Temp;Humidity;BMP_temperature;BMP_pressure;BME280_temperature;BME280_humidity;BME280_pressure;Samples;Min_cycle;Max_cycle;Signal;HPM_P1;HPM_P2
2021/06/05 00:01:19;;;;;;;5.67;5.10;;;;;;;;;;4983832;28;20498;-66
2021/06/05 00:03:46;;;;;;;5.93;5.43;;;;;;;;;;4972885;28;20447;-67
2021/06/05 00:06:14;;;;;;;6.97;6.33;;;;;;;;;;4972261;28;20451;-67
2021/06/05 00:08:41;;;;;;;6.20;5.70;;;;;;;;;;4973047;28;20534;-67
2021/06/05 00:11:09;;;;;;;6.53;6.03;;;;;;;;;;4972578;28;20451;-67
2021/06/05 00:13:37;;;;;;;7.00;6.40;;;;;;;;;;4972505;28;20969;-67
2021/06/05 00:16:05;;;;;;;6.90;6.40;;;;;;;;;;4972265;28;20451;-67
2021/06/05 00:18:32;;;;;;;6.77;6.20;;;;;;;;;;4972595;28;20555;-68
2021/06/05 00:21:00;;;;;;;6.53;6.03;;;;;;;;;;4972403;28;21355;-68
2021/06/05 00:23:27;;;;;;;6.37;5.87;;;;;;;;;;4972777;28;20462;-67
2021/06/05 00:25:55;;;;;;;7.37;5.80;;;;;;;;;;4971224;28;20459;-67
2021/06/05 00:28:21;;;;;;;6.47;5.97;;;;;;;;;;4972281;28;20483;-67
2021/06/05 00:30:48;;;;;;;7.13;6.53;;;;;;;;;;4972308;28;20455;-67
2021/06/05 00:33:15;;;;;;;7.30;6.60;;;;;;;;;;4972488;28;20467;-67
2021/06/05 00:35:42;;;;;;;7.00;6.47;;;;;;;;;;4971125;28;21033;-68
2021/06/05 00:38:10;;;;;;;6.80;6.17;;;;;;;;;;4972384;28;20480;-68
2021/06/05 00:40:39;;;;;;;5.97;5.47;;;;;;;;;;4972293;28;20459;-67
2021/06/05 00:43:06;;;;;;;6.50;6.00;;;;;;;;;;4972347;28;20483;-66
2021/06/05 00:45:34;;;;;;;6.20;5.50;;;;;;;;;;4971961;28;20846;-67
2021/06/05 00:48:01;;;;;;;6.10;5.40;;;;;;;;;;4970432;28;20487;-67
2021/06/05 00:50:28;;;;;;;6.43;5.93;;;;;;;;;;4972125;28;20456;-67
2021/06/05 00:52:55;;;;;;;8.93;6.33;;;;;;;;;;4971953;28;21079;-67
2021/06/05 00:55:24;;;;;;;6.27;5.73;;;;;;;;;;4971867;28;20455;-66
2021/06/05 00:57:51;;;;;;;6.80;6.20;;;;;;;;;;4972200;28;20479;-67
2021/06/05 01:00:23;;;;;;;5.80;5.30;;;;;;;;;;4972477;28;20458;-67
2021/06/05 01:02:51;;;;;;;6.57;5.97;;;;;;;;;;4971315;28;20483;-67
2021/06/05 01:05:18;;;;;;;6.77;6.00;;;;;;;;;;4971461;28;20501;-67
2021/06/05 01:07:45;;;;;;;6.13;5.63;;;;;;;;;;4971594;28;20475;-68
2021/06/05 01:10:16;;;;;;;6.13;5.57;;;;;;;;;;4968561;28;20513;-68
2021/06/05 01:12:48;;;;;;;6.60;5.90;;;;;;;;;;4972397;28;20942;-66
2021/06/05 01:15:16;;;;;;;7.53;6.47;;;;;;;;;;4972073;28;20443;-67
2021/06/05 01:17:44;;;;;;;6.63;6.03;;;;;;;;;;4972065;28;20498;-66
2021/06/05 01:20:13;;;;;;;6.77;6.10;;;;;;;;;;4971595;28;20503;-67
2021/06/05 01:22:44;;;;;;;6.63;6.00;;;;;;;;;;4972058;28;20538;-67
2021/06/05 01:25:22;;;;;;;7.10;6.50;;;;;;;;;;4972100;28;20947;-67
2021/06/05 01:27:53;;;;;;;8.90;8.07;;;;;;;;;;4971751;28;20474;-67
2021/06/05 01:30:23;;;;;;;11.87;10.90;;;;;;;;;;4972044;28;20456;-68
2021/06/05 01:32:50;;;;;;;13.90;12.80;;;;;;;;;;4971660;28;20485;-68
2021/06/05 01:35:17;;;;;;;13.90;12.90;;;;;;;;;;4971880;28;20458;-67
2021/06/05 01:37:44;;;;;;;14.37;13.27;;;;;;;;;;4973555;28;20537;-67
2021/06/05 01:40:13;;;;;;;15.33;14.23;;;;;;;;;;4975876;28;20447;-68
2021/06/05 01:42:41;;;;;;;16.30;15.20;;;;;;;;;;4975343;28;20840;-68
2021/06/05 01:45:13;;;;;;;15.03;13.93;;;;;;;;;;4975521;28;20451;-68
2021/06/05 01:47:40;;;;;;;15.93;14.73;;;;;;;;;;4974508;28;20497;-67
2021/06/05 01:50:08;;;;;;;16.20;14.80;;;;;;;;;;4975149;28;20821;-68
2021/06/05 01:52:35;;;;;;;16.00;14.67;;;;;;;;;;4974514;28;20447;-68
2021/06/05 01:55:05;;;;;;;15.33;14.33;;;;;;;;;;4975778;28;20454;-68
2021/06/05 01:57:33;;;;;;;15.53;14.53;;;;;;;;;;4973943;28;20463;-66
2021/06/05 02:00:00;;;;;;;15.70;14.60;;;;;;;;;;4975621;28;20451;-68
2021/06/05 02:02:28;;;;;;;15.60;14.60;;;;;;;;;;4974618;28;20511;-66
2021/06/05 02:04:55;;;;;;;16.23;15.13;;;;;;;;;;4975297;28;20955;-68
2021/06/05 02:07:21;;;;;;;16.07;14.97;;;;;;;;;;4974145;28;20991;-68
2021/06/05 02:09:50;;;;;;;15.43;14.33;;;;;;;;;;4975651;28;20458;-67
2021/06/05 02:12:19;;;;;;;16.97;15.80;;;;;;;;;;4974643;28;20969;-67
2021/06/05 02:14:50;;;;;;;16.80;15.60;;;;;;;;;;4975508;28;20455;-67
2021/06/05 02:17:18;;;;;;;17.27;16.00;;;;;;;;;;4974005;28;20475;-68
2021/06/05 02:19:49;;;;;;;17.07;15.87;;;;;;;;;;4975624;28;20463;-69
2021/06/05 02:22:17;;;;;;;17.10;16.00;;;;;;;;;;4975344;28;20498;-67
2021/06/05 02:24:45;;;;;;;17.30;16.07;;;;;;;;;;4975257;28;20824;-68
2021/06/05 02:27:12;;;;;;;17.23;16.13;;;;;;;;;;4973822;28;20483;-66
2021/06/05 02:29:40;;;;;;;17.47;16.37;;;;;;;;;;4975498;28;20459;-68
2021/06/05 02:32:08;;;;;;;17.53;16.33;;;;;;;;;;4975257;28;20459;-67
2021/06/05 02:34:34;;;;;;;16.80;15.70;;;;;;;;;;4974596;28;20458;-66
2021/06/05 02:37:05;;;;;;;16.93;15.83;;;;;;;;;;4982188;28;21053;-67
2021/06/05 02:39:31;;;;;;;17.67;16.57;;;;;;;;;;4981214;28;20455;-66
2021/06/05 02:41:58;;;;;;;18.17;16.90;;;;;;;;;;4990264;28;20527;-67
2021/06/05 02:44:26;;;;;;;17.53;16.43;;;;;;;;;;4988041;28;20457;-67
2021/06/05 02:46:53;;;;;;;18.37;17.10;;;;;;;;;;4973822;28;21020;-68
2021/06/05 02:49:26;;;;;;;17.93;16.70;;;;;;;;;;4974234;28;20505;-67
2021/06/05 02:51:54;;;;;;;18.07;16.83;;;;;;;;;;4974460;28;20826;-69
2021/06/05 02:54:23;;;;;;;16.57;15.47;;;;;;;;;;4974791;28;20490;-67
2021/06/05 02:56:49;;;;;;;17.33;16.23;;;;;;;;;;4974204;28;20473;-67
2021/06/05 02:59:16;;;;;;;16.90;15.70;;;;;;;;;;4974947;28;20546;-67
2021/06/05 03:01:42;;;;;;;17.60;16.07;;;;;;;;;;4974632;28;21002;-68
2021/06/05 03:04:09;;;;;;;17.83;16.63;;;;;;;;;;4974670;28;20470;-67
2021/06/05 03:06:36;;;;;;;17.13;15.93;;;;;;;;;;4973802;28;20470;-67
2021/06/05 03:09:02;;;;;;;16.53;15.43;;;;;;;;;;4974456;28;20970;-67
2021/06/05 03:11:30;;;;;;;17.53;16.50;;;;;;;;;;4974784;28;20451;-68
2021/06/05 03:13:57;;;;;;;19.03;17.43;;;;;;;;;;4973991;28;20471;-67
2021/06/05 03:16:24;;;;;;;18.13;16.83;;;;;;;;;;4974357;28;20467;-66
2021/06/05 03:18:50;;;;;;;18.17;16.87;;;;;;;;;;4974440;28;20558;-67
2021/06/05 03:21:18;;;;;;;16.63;15.47;;;;;;;;;;4974659;28;20459;-67
2021/06/05 03:23:45;;;;;;;16.97;15.67;;;;;;;;;;4974114;28;20982;-68
2021/06/05 03:26:12;;;;;;;17.47;16.13;;;;;;;;;;4973760;28;20465;-66
2021/06/05 03:28:41;;;;;;;17.37;16.13;;;;;;;;;;4974024;28;20477;-67
2021/06/05 03:31:08;;;;;;;16.03;15.00;;;;;;;;;;4973977;28;20835;-68
2021/06/05 03:33:35;;;;;;;25.37;23.57;;;;;;;;;;4973765;28;20455;-68
2021/06/05 03:36:02;;;;;;;16.43;15.43;;;;;;;;;;4973791;28;20458;-67
2021/06/05 03:38:28;;;;;;;16.77;15.67;;;;;;;;;;4973834;28;21007;-66
2021/06/05 03:40:55;;;;;;;17.00;15.93;;;;;;;;;;4974453;28;20460;-68
2021/06/05 03:43:23;;;;;;;16.13;15.13;;;;;;;;;;4974467;28;20484;-66
2021/06/05 03:45:51;;;;;;;15.67;14.47;;;;;;;;;;4973499;28;20456;-68
2021/06/05 03:48:18;;;;;;;16.23;15.20;;;;;;;;;;4973328;28;20491;-68
2021/06/05 03:50:46;;;;;;;16.70;15.60;;;;;;;;;;5006452;23;20495;-64
2021/06/05 03:53:13;;;;;;;16.67;15.67;;;;;;;;;;5021226;28;20463;-66
2021/06/05 03:55:40;;;;;;;16.50;15.30;;;;;;;;;;5011704;28;20450;-66
2021/06/05 03:58:07;;;;;;;16.10;15.10;;;;;;;;;;5019819;28;20449;-64
2021/06/05 04:00:35;;;;;;;16.20;15.10;;;;;;;;;;5028181;28;20484;-67
2021/06/05 04:03:04;;;;;;;16.30;15.20;;;;;;;;;;5002870;28;20490;-67
2021/06/05 04:05:31;;;;;;;21.23;19.80;;;;;;;;;;4996113;28;20445;-68
2021/06/05 04:07:57;;;;;;;16.97;15.77;;;;;;;;;;5011796;28;20480;-68
2021/06/05 04:10:25;;;;;;;17.20;16.10;;;;;;;;;;5011474;28;20987;-68
2021/06/05 04:12:52;;;;;;;17.37;16.07;;;;;;;;;;5004231;28;20529;-68
2021/06/05 04:15:20;;;;;;;16.47;15.37;;;;;;;;;;5011529;28;20501;-68
2021/06/05 04:17:47;;;;;;;17.53;16.33;;;;;;;;;;5011206;28;20956;-68
2021/06/05 04:20:16;;;;;;;16.80;15.80;;;;;;;;;;5010354;28;20450;-69
2021/06/05 04:22:43;;;;;;;16.03;15.03;;;;;;;;;;5011509;28;20477;-68
2021/06/05 04:25:10;;;;;;;17.40;16.30;;;;;;;;;;5011299;28;20960;-69
2021/06/05 04:27:37;;;;;;;16.47;15.37;;;;;;;;;;5004680;28;20546;-68
2021/06/05 04:30:05;;;;;;;16.67;15.57;;;;;;;;;;5011481;28;20446;-63
2021/06/05 04:32:32;;;;;;;16.13;15.20;;;;;;;;;;5011197;28;20988;-69
2021/06/05 04:34:59;;;;;;;15.57;14.60;;;;;;;;;;5011775;28;20465;-67
2021/06/05 04:37:27;;;;;;;16.40;15.30;;;;;;;;;;5008344;28;20450;-66
2021/06/05 04:39:53;;;;;;;15.93;14.83;;;;;;;;;;5011810;28;20489;-67
2021/06/05 04:42:20;;;;;;;15.80;14.80;;;;;;;;;;5011022;28;20880;-66
2021/06/05 04:44:47;;;;;;;16.03;14.93;;;;;;;;;;5011600;28;20457;-67
2021/06/05 04:47:14;;;;;;;15.27;14.37;;;;;;;;;;5010048;28;20484;-65
2021/06/05 04:49:40;;;;;;;15.37;14.30;;;;;;;;;;5011842;28;20462;-67
2021/06/05 04:52:07;;;;;;;15.23;14.33;;;;;;;;;;5011208;28;20828;-67
2021/06/05 04:54:35;;;;;;;14.47;13.50;;;;;;;;;;5011063;28;20449;-67
2021/06/05 04:57:02;;;;;;;15.27;14.33;;;;;;;;;;5010414;28;20468;-67
2021/06/05 04:59:28;;;;;;;14.30;13.50;;;;;;;;;;5011667;28;20460;-67
2021/06/05 05:01:56;;;;;;;14.20;13.27;;;;;;;;;;5012459;28;20481;-67
2021/06/05 05:04:23;;;;;;;13.43;12.63;;;;;;;;;;5000395;28;20533;-67
2021/06/05 05:06:50;;;;;;;14.90;13.90;;;;;;;;;;5011474;28;20449;-68
2021/06/05 05:09:17;;;;;;;13.00;12.20;;;;;;;;;;5008651;28;20484;-67
2021/06/05 05:11:45;;;;;;;14.30;13.40;;;;;;;;;;5013705;28;20822;-67
2021/06/05 05:14:12;;;;;;;13.90;12.90;;;;;;;;;;5014771;28;20511;-67
2021/06/05 05:16:39;;;;;;;14.53;13.53;;;;;;;;;;5014673;28;20449;-67
2021/06/05 05:19:05;;;;;;;14.53;13.53;;;;;;;;;;5014386;28;20970;-67
2021/06/05 05:21:32;;;;;;;14.20;13.20;;;;;;;;;;5014891;28;21213;-67
2021/06/05 05:23:59;;;;;;;14.20;13.37;;;;;;;;;;5012060;28;20457;-67
2021/06/05 05:26:26;;;;;;;13.40;12.60;;;;;;;;;;5001472;28;20450;-67
2021/06/05 05:28:55;;;;;;;12.93;12.00;;;;;;;;;;5003460;28;20449;-66
2021/06/05 05:31:23;;;;;;;13.90;13.00;;;;;;;;;;5014434;28;20473;-67
2021/06/05 05:33:50;;;;;;;12.97;12.20;;;;;;;;;;5015418;28;20446;-67
2021/06/05 05:36:18;;;;;;;13.60;12.70;;;;;;;;;;5012734;28;20449;-67
2021/06/05 05:38:45;;;;;;;12.17;11.47;;;;;;;;;;5014170;28;20457;-66
2021/06/05 05:41:12;;;;;;;13.40;12.50;;;;;;;;;;5015191;28;20522;-67
2021/06/05 05:43:39;;;;;;;13.13;12.33;;;;;;;;;;5012567;28;20861;-66
2021/06/05 05:46:07;;;;;;;12.40;11.60;;;;;;;;;;5013875;28;20937;-66
2021/06/05 05:48:34;;;;;;;13.90;12.87;;;;;;;;;;5014080;28;20529;-67
2021/06/05 05:51:01;;;;;;;13.00;12.00;;;;;;;;;;5014383;28;21003;-66
2021/06/05 05:53:28;;;;;;;11.80;11.10;;;;;;;;;;5013912;28;20746;-66
2021/06/05 05:55:55;;;;;;;12.80;11.90;;;;;;;;;;5013979;28;20476;-67
2021/06/05 05:58:23;;;;;;;10.60;9.90;;;;;;;;;;5013729;28;20457;-67
2021/06/05 06:00:51;;;;;;;14.80;8.27;;;;;;;;;;5014762;28;20472;-67
2021/06/05 06:03:19;;;;;;;9.83;7.70;;;;;;;;;;5005663;28;20593;-66
2021/06/05 06:05:46;;;;;;;8.30;6.70;;;;;;;;;;5013275;28;20453;-69
2021/06/05 06:08:14;;;;;;;6.80;6.20;;;;;;;;;;5012765;28;20464;-67
2021/06/05 06:10:41;;;;;;;8.40;6.47;;;;;;;;;;5011107;28;21016;-67
2021/06/05 06:13:07;;;;;;;10.93;6.20;;;;;;;;;;5014083;28;20446;-66
2021/06/05 06:15:34;;;;;;;10.20;6.53;;;;;;;;;;5012715;28;20979;-68
2021/06/05 06:18:01;;;;;;;7.37;6.50;;;;;;;;;;5013923;28;20453;-66
2021/06/05 06:20:31;;;;;;;10.60;6.20;;;;;;;;;;5013487;28;20995;-66
2021/06/05 06:22:58;;;;;;;6.73;5.90;;;;;;;;;;5013620;28;20485;-66
2021/06/05 06:25:28;;;;;;;6.30;5.47;;;;;;;;;;5005655;28;20450;-65
2021/06/05 06:27:55;;;;;;;6.27;5.67;;;;;;;;;;4994341;28;20457;-67
2021/06/05 06:30:23;;;;;;;5.87;5.37;;;;;;;;;;5009525;28;20454;-66
2021/06/05 06:32:52;;;;;;;6.07;5.57;;;;;;;;;;5013764;28;20454;-65
2021/06/05 06:35:19;;;;;;;6.37;5.73;;;;;;;;;;5007532;28;20888;-65
2021/06/05 06:37:47;;;;;;;6.83;6.10;;;;;;;;;;5013332;28;20461;-64
2021/06/05 06:40:14;;;;;;;6.03;5.50;;;;;;;;;;5013747;28;20468;-65
2021/06/05 06:42:41;;;;;;;6.30;5.80;;;;;;;;;;5012628;28;20969;-66
2021/06/05 06:45:08;;;;;;;6.53;5.80;;;;;;;;;;5006505;28;20457;-68
2021/06/05 06:47:34;;;;;;;7.33;6.73;;;;;;;;;;5003121;28;22096;-67
2021/06/05 06:50:01;;;;;;;7.77;7.10;;;;;;;;;;5006491;28;20922;-68
2021/06/05 06:52:28;;;;;;;8.83;7.03;;;;;;;;;;5012984;28;20474;-68
2021/06/05 06:54:56;;;;;;;6.93;6.23;;;;;;;;;;5013483;28;20461;-67
2021/06/05 06:57:22;;;;;;;7.23;6.63;;;;;;;;;;5008324;28;20784;-68
2021/06/05 06:59:49;;;;;;;7.30;6.70;;;;;;;;;;5003362;28;20464;-67
2021/06/05 07:02:16;;;;;;;6.93;6.23;;;;;;;;;;5010219;28;20592;-68
2021/06/05 07:04:43;;;;;;;5.80;5.30;;;;;;;;;;4998863;28;20692;-67
2021/06/05 07:07:09;;;;;;;7.77;5.93;;;;;;;;;;4993903;28;20446;-68
2021/06/05 07:09:36;;;;;;;7.67;6.97;;;;;;;;;;5012813;28;20508;-65
2021/06/05 07:12:05;;;;;;;6.20;5.60;;;;;;;;;;5012931;28;20465;-67
2021/06/05 07:14:31;;;;;;;5.77;5.30;;;;;;;;;;5012183;28;20845;-68
2021/06/05 07:17:00;;;;;;;6.20;5.57;;;;;;;;;;5010396;28;20480;-67
2021/06/05 07:19:27;;;;;;;6.60;6.00;;;;;;;;;;5010279;28;20967;-68
2021/06/05 07:21:53;;;;;;;8.30;5.67;;;;;;;;;;5012379;28;20473;-66
2021/06/05 07:24:20;;;;;;;7.73;5.70;;;;;;;;;;5012141;28;20446;-66
2021/06/05 07:26:47;;;;;;;8.20;6.20;;;;;;;;;;5011890;28;20453;-67
2021/06/05 07:29:15;;;;;;;6.47;5.87;;;;;;;;;;5011380;28;20453;-67
2021/06/05 07:31:43;;;;;;;7.60;6.07;;;;;;;;;;5007869;28;20497;-66
2021/06/05 07:34:10;;;;;;;5.73;5.30;;;;;;;;;;5006042;28;20961;-67
2021/06/05 07:36:38;;;;;;;6.07;5.53;;;;;;;;;;5002757;28;20833;-68
2021/06/05 07:39:06;;;;;;;6.40;5.20;;;;;;;;;;5007145;28;20460;-68
2021/06/05 07:41:33;;;;;;;5.60;5.10;;;;;;;;;;5012018;28;20477;-68
2021/06/05 07:43:59;;;;;;;5.17;4.77;;;;;;;;;;5012309;28;20485;-68
2021/06/05 07:46:28;;;;;;;5.13;4.73;;;;;;;;;;5004630;28;20476;-67
2021/06/05 07:48:54;;;;;;;6.10;5.50;;;;;;;;;;5012502;28;20503;-69
2021/06/05 07:51:21;;;;;;;5.77;5.27;;;;;;;;;;5011724;28;20542;-69
2021/06/05 07:53:48;;;;;;;6.07;5.43;;;;;;;;;;5002779;28;20941;-69
2021/06/05 07:56:15;;;;;;;5.67;5.07;;;;;;;;;;5012044;28;20532;-70
2021/06/05 07:58:41;;;;;;;4.63;4.20;;;;;;;;;;5012372;28;20442;-68
2021/06/05 08:01:08;;;;;;;5.00;4.60;;;;;;;;;;5011032;28;20479;-69
2021/06/05 08:03:36;;;;;;;5.23;4.73;;;;;;;;;;5011889;28;20543;-69
2021/06/05 08:06:03;;;;;;;7.70;5.30;;;;;;;;;;5011237;28;20458;-68
2021/06/05 08:08:29;;;;;;;4.67;4.30;;;;;;;;;;5010393;28;20973;-68
2021/06/05 08:10:56;;;;;;;4.73;4.40;;;;;;;;;;5011268;28;20481;-68
2021/06/05 08:13:23;;;;;;;6.00;4.47;;;;;;;;;;5012335;28;20507;-67
2021/06/05 08:15:50;;;;;;;7.37;4.93;;;;;;;;;;5011309;28;20683;-68
2021/06/05 08:18:17;;;;;;;5.10;4.70;;;;;;;;;;5011749;28;20457;-66
2021/06/05 08:20:47;;;;;;;5.10;4.30;;;;;;;;;;5011884;28;20469;-68
2021/06/05 08:23:14;;;;;;;6.50;4.90;;;;;;;;;;5012265;28;20481;-67
2021/06/05 08:25:41;;;;;;;5.40;4.23;;;;;;;;;;5009020;28;20464;-66
2021/06/05 08:28:08;;;;;;;5.53;4.90;;;;;;;;;;4997875;28;20485;-70
2021/06/05 08:30:35;;;;;;;5.60;4.67;;;;;;;;;;5002030;28;20961;-67
2021/06/05 08:33:02;;;;;;;5.40;4.90;;;;;;;;;;5008044;28;20447;-69
2021/06/05 08:35:29;;;;;;;5.90;4.80;;;;;;;;;;5010850;28;20454;-69
2021/06/05 08:37:57;;;;;;;4.60;4.20;;;;;;;;;;5011422;28;20449;-65
2021/06/05 08:40:25;;;;;;;4.67;4.37;;;;;;;;;;5011367;28;20473;-66
2021/06/05 08:42:52;;;;;;;7.87;4.90;;;;;;;;;;5008342;28;20478;-68
2021/06/05 08:45:21;;;;;;;6.30;3.90;;;;;;;;;;5010472;28;20460;-67
2021/06/05 08:47:47;;;;;;;4.70;4.20;;;;;;;;;;5003126;28;20466;-66
2021/06/05 08:50:15;;;;;;;5.23;4.67;;;;;;;;;;5009766;28;20450;-66
2021/06/05 08:52:43;;;;;;;5.17;4.20;;;;;;;;;;5014958;28;20468;-66
2021/06/05 08:55:13;;;;;;;4.40;4.00;;;;;;;;;;5015191;28;20897;-66
2021/06/05 08:57:43;;;;;;;5.20;4.13;;;;;;;;;;5015171;28;20449;-66
2021/06/05 09:00:15;;;;;;;6.57;4.20;;;;;;;;;;5015416;28;20468;-66
2021/06/05 09:02:44;;;;;;;4.20;3.80;;;;;;;;;;5012114;28;20489;-67
2021/06/05 09:05:12;;;;;;;4.30;3.90;;;;;;;;;;5015003;28;20464;-66
2021/06/05 09:07:40;;;;;;;4.10;3.80;;;;;;;;;;5015272;28;20453;-66
2021/06/05 09:10:07;;;;;;;4.43;4.03;;;;;;;;;;5009955;28;20449;-67
2021/06/05 09:12:35;;;;;;;4.40;4.10;;;;;;;;;;5015356;28;20496;-68
2021/06/05 09:15:02;;;;;;;4.20;3.80;;;;;;;;;;5014961;28;20453;-66
2021/06/05 09:17:37;;;;;;;5.03;4.20;;;;;;;;;;5014415;28;20450;-67
2021/06/05 09:20:09;;;;;;;4.70;4.30;;;;;;;;;;5015014;28;20461;-67
2021/06/05 09:22:36;;;;;;;4.67;4.27;;;;;;;;;;5013571;28;20491;-67
2021/06/05 09:25:18;;;;;;;6.73;4.20;;;;;;;;;;5010416;28;20877;-67
2021/06/05 09:27:46;;;;;;;4.20;3.90;;;;;;;;;;4999109;28;20441;-66
2021/06/05 09:30:24;;;;;;;4.10;3.70;;;;;;;;;;5014916;28;20465;-65
2021/06/05 09:32:56;;;;;;;4.67;3.97;;;;;;;;;;5013543;28;20457;-67
2021/06/05 09:35:25;;;;;;;4.27;3.97;;;;;;;;;;5014908;28;20426;-67
2021/06/05 09:37:53;;;;;;;5.30;4.80;;;;;;;;;;5012369;28;20817;-66
2021/06/05 09:40:25;;;;;;;4.30;3.90;;;;;;;;;;5014211;28;20457;-66
2021/06/05 09:42:54;;;;;;;4.57;3.97;;;;;;;;;;5012013;28;20535;-66
2021/06/05 09:45:23;;;;;;;4.13;3.80;;;;;;;;;;5013768;28;20469;-69
2021/06/05 09:47:50;;;;;;;4.67;4.17;;;;;;;;;;5014714;28;20481;-66
2021/06/05 09:50:21;;;;;;;3.90;3.57;;;;;;;;;;5013478;28;20446;-67
2021/06/05 09:52:47;;;;;;;3.90;3.70;;;;;;;;;;5029322;22;20497;-64
2021/06/05 09:55:36;;;;;;;4.43;3.80;;;;;;;;;;5003410;28;20452;-63
2021/06/05 09:58:09;;;;;;;5.60;3.67;;;;;;;;;;4989180;28;20457;-63
2021/06/05 10:00:37;;;;;;;3.43;3.13;;;;;;;;;;4999425;28;20450;-66
2021/06/05 10:03:28;;;;;;;4.03;3.47;;;;;;;;;;4977553;28;20573;-66
2021/06/05 10:05:55;;;;;;;4.17;3.77;;;;;;;;;;4968539;28;20872;-66
2021/06/05 10:08:25;;;;;;;4.10;3.70;;;;;;;;;;4994382;28;20947;-66
2021/06/05 10:10:54;;;;;;;3.77;3.47;;;;;;;;;;4994505;28;20513;-65
2021/06/05 10:13:25;;;;;;;3.70;3.40;;;;;;;;;;4994192;28;20941;-66
2021/06/05 10:15:54;;;;;;;3.23;3.00;;;;;;;;;;4990569;28;20438;-66
2021/06/05 10:18:22;;;;;;;3.57;3.27;;;;;;;;;;4979663;28;20446;-65
2021/06/05 10:20:51;;;;;;;3.50;3.20;;;;;;;;;;4993536;28;20596;-65
2021/06/05 10:23:19;;;;;;;3.33;3.03;;;;;;;;;;4984654;28;20652;-65
2021/06/05 10:25:48;;;;;;;3.50;3.20;;;;;;;;;;4993177;28;20961;-66
2021/06/05 10:28:17;;;;;;;5.77;3.33;;;;;;;;;;4993512;28;20460;-65
2021/06/05 10:30:46;;;;;;;4.00;3.60;;;;;;;;;;4994133;28;20462;-63
2021/06/05 10:33:16;;;;;;;2.97;2.77;;;;;;;;;;4994200;28;20470;-63
2021/06/05 10:35:44;;;;;;;3.00;2.80;;;;;;;;;;4987125;28;20458;-65
2021/06/05 10:38:12;;;;;;;3.37;3.10;;;;;;;;;;4978217;28;20450;-65
2021/06/05 10:40:38;;;;;;;3.43;3.13;;;;;;;;;;4991475;28;20462;-65
2021/06/05 10:43:07;;;;;;;3.57;3.27;;;;;;;;;;4985011;28;20485;-65
2021/06/05 10:45:34;;;;;;;3.30;3.03;;;;;;;;;;4985335;28;20957;-66
2021/06/05 10:48:05;;;;;;;2.90;2.70;;;;;;;;;;4993778;28;20461;-65
2021/06/05 10:50:34;;;;;;;3.20;2.90;;;;;;;;;;4987446;28;20926;-66
2021/06/05 10:53:06;;;;;;;3.30;3.00;;;;;;;;;;4975082;28;20479;-65
2021/06/05 10:55:34;;;;;;;3.00;2.80;;;;;;;;;;4992716;28;20195;-65
2021/06/05 10:58:21;;;;;;;3.10;2.60;;;;;;;;;;4994110;28;20499;-64
2021/06/05 11:00:49;;;;;;;2.77;2.57;;;;;;;;;;4993461;28;20458;-66
2021/06/05 11:03:36;;;;;;;3.60;2.50;;;;;;;;;;4994409;28;20493;-65
2021/06/05 11:06:05;;;;;;;3.47;2.83;;;;;;;;;;4975154;28;20479;-66
2021/06/05 11:08:34;;;;;;;2.90;2.70;;;;;;;;;;4994714;28;20565;-66
2021/06/05 11:11:27;;;;;;;3.83;3.30;;;;;;;;;;4984741;28;20517;-64
2021/06/05 11:13:54;;;;;;;4.20;3.10;;;;;;;;;;4955411;28;20446;-65
2021/06/05 11:16:22;;;;;;;3.30;3.10;;;;;;;;;;4992880;28;20957;-65
2021/06/05 11:18:49;;;;;;;3.70;3.40;;;;;;;;;;4994064;28;20804;-66
2021/06/05 11:21:34;;;;;;;8.03;3.77;;;;;;;;;;4993264;28;20455;-65
2021/06/05 11:24:14;;;;;;;3.87;3.03;;;;;;;;;;4994321;28;20486;-66
2021/06/05 11:26:43;;;;;;;3.73;3.43;;;;;;;;;;4994208;28;20454;-65
2021/06/05 11:29:36;;;;;;;3.27;3.00;;;;;;;;;;4983805;28;20446;-65
2021/06/05 11:32:06;;;;;;;3.20;2.90;;;;;;;;;;4996557;28;20482;-65
2021/06/05 11:34:51;;;;;;;2.87;2.67;;;;;;;;;;4995570;28;20562;-65
2021/06/05 11:37:32;;;;;;;4.53;3.57;;;;;;;;;;4992217;28;20825;-65
2021/06/05 11:40:02;;;;;;;3.10;2.87;;;;;;;;;;4989857;28;20450;-65
2021/06/05 11:42:53;;;;;;;3.30;2.97;;;;;;;;;;4980910;28;21023;-66
2021/06/05 11:45:37;;;;;;;3.40;2.90;;;;;;;;;;4967946;28;20821;-66
2021/06/05 11:48:19;;;;;;;3.80;3.33;;;;;;;;;;4982687;28;20465;-65
2021/06/05 11:50:46;;;;;;;3.20;3.00;;;;;;;;;;4989760;28;20454;-65
2021/06/05 11:53:30;;;;;;;5.57;3.17;;;;;;;;;;4978786;28;20481;-66
2021/06/05 11:56:05;;;;;;;3.37;3.07;;;;;;;;;;4992187;28;20496;-65
2021/06/05 11:58:33;;;;;;;3.87;3.57;;;;;;;;;;4973121;28;20920;-66
2021/06/05 12:01:05;;;;;;;3.60;3.40;;;;;;;;;;4973508;28;20981;-66
2021/06/05 12:03:37;;;;;;;7.40;4.10;;;;;;;;;;4973383;28;20982;-65
2021/06/05 12:06:16;;;;;;;4.27;3.87;;;;;;;;;;4972509;28;20445;-65
2021/06/05 12:08:42;;;;;;;4.47;4.17;;;;;;;;;;4973522;28;20441;-65
2021/06/05 12:11:22;;;;;;;3.90;3.60;;;;;;;;;;4972983;28;20447;-66
2021/06/05 12:13:49;;;;;;;4.37;3.97;;;;;;;;;;4973081;28;20495;-65
2021/06/05 12:16:17;;;;;;;3.80;3.50;;;;;;;;;;4972477;28;20453;-66
2021/06/05 12:18:45;;;;;;;4.20;3.90;;;;;;;;;;4990612;28;20958;-66
2021/06/05 12:21:23;;;;;;;4.70;4.30;;;;;;;;;;4991747;28;20454;-66
2021/06/05 12:23:51;;;;;;;3.53;3.33;;;;;;;;;;4992413;28;20481;-65
2021/06/05 12:26:18;;;;;;;3.57;3.27;;;;;;;;;;4991903;28;20451;-65
2021/06/05 12:28:48;;;;;;;3.90;3.60;;;;;;;;;;4991928;28;20459;-65
2021/06/05 12:31:17;;;;;;;4.03;3.60;;;;;;;;;;4991574;28;20926;-65
2021/06/05 12:33:44;;;;;;;3.50;3.20;;;;;;;;;;4973393;28;20822;-65
2021/06/05 12:36:19;;;;;;;4.27;3.87;;;;;;;;;;4972076;28;20868;-64
2021/06/05 12:38:49;;;;;;;3.77;3.47;;;;;;;;;;4973333;28;20431;-64
2021/06/05 12:41:19;;;;;;;3.90;3.50;;;;;;;;;;4972714;28;21010;-66
2021/06/05 12:43:47;;;;;;;3.80;3.50;;;;;;;;;;4972577;28;20585;-65
2021/06/05 12:46:18;;;;;;;3.93;3.63;;;;;;;;;;4974511;28;20481;-65
2021/06/05 12:48:45;;;;;;;3.60;3.30;;;;;;;;;;4992469;28;20439;-66
2021/06/05 12:51:16;;;;;;;3.93;3.63;;;;;;;;;;4992216;28;20454;-65
2021/06/05 12:53:42;;;;;;;5.67;3.60;;;;;;;;;;4992169;28;20442;-65
2021/06/05 12:56:28;;;;;;;3.97;3.67;;;;;;;;;;4991498;28;20519;-65
2021/06/05 12:58:58;;;;;;;4.50;3.73;;;;;;;;;;4992242;28;20914;-65
2021/06/05 13:01:27;;;;;;;4.57;4.17;;;;;;;;;;4990919;28;20475;-66
2021/06/05 13:03:53;;;;;;;3.83;3.53;;;;;;;;;;4992160;28;20479;-65
2021/06/05 13:06:22;;;;;;;4.30;3.90;;;;;;;;;;4991459;28;20476;-65
2021/06/05 13:08:49;;;;;;;4.87;3.80;;;;;;;;;;4992051;28;20462;-66
2021/06/05 13:11:31;;;;;;;4.23;3.83;;;;;;;;;;4992050;28;20474;-63
2021/06/05 13:14:10;;;;;;;5.40;4.17;;;;;;;;;;4991648;28;21157;-64
2021/06/05 13:16:37;;;;;;;4.33;4.00;;;;;;;;;;4980821;28;20465;-64
2021/06/05 13:19:13;;;;;;;6.50;6.03;;;;;;;;;;4972477;28;20541;-64
2021/06/05 13:21:41;;;;;;;4.30;4.00;;;;;;;;;;4972460;28;20474;-63
2021/06/05 13:24:12;;;;;;;4.43;4.03;;;;;;;;;;4972211;28;20487;-64
2021/06/05 13:26:39;;;;;;;4.50;4.20;;;;;;;;;;4971817;28;20793;-64
2021/06/05 13:29:39;;;;;;;4.30;4.00;;;;;;;;;;4972079;28;20970;-63
2021/06/05 13:32:09;;;;;;;4.30;3.90;;;;;;;;;;4974468;28;20479;-64
2021/06/05 13:34:38;;;;;;;4.40;3.80;;;;;;;;;;4995559;28;20446;-64
2021/06/05 13:37:16;;;;;;;3.87;3.57;;;;;;;;;;4995359;28;20816;-64
2021/06/05 13:39:43;;;;;;;4.00;3.70;;;;;;;;;;4995740;28;20443;-64
2021/06/05 13:42:10;;;;;;;4.60;3.80;;;;;;;;;;4995472;28;20520;-64
2021/06/05 13:44:38;;;;;;;3.60;3.30;;;;;;;;;;4995297;28;20486;-64
2021/06/05 13:47:05;;;;;;;8.33;3.93;;;;;;;;;;4994394;28;20454;-63
2021/06/05 13:49:33;;;;;;;3.90;3.60;;;;;;;;;;4995735;28;20461;-64
2021/06/05 13:52:03;;;;;;;3.70;3.50;;;;;;;;;;4995058;28;20486;-64
2021/06/05 13:54:29;;;;;;;6.10;3.90;;;;;;;;;;4995114;28;20834;-63
2021/06/05 13:56:56;;;;;;;3.60;3.30;;;;;;;;;;4994777;28;20450;-64
2021/06/05 13:59:22;;;;;;;4.30;3.70;;;;;;;;;;4994683;28;20808;-62
2021/06/05 14:01:49;;;;;;;3.37;3.00;;;;;;;;;;4995496;28;20478;-63
2021/06/05 14:04:16;;;;;;;4.03;3.70;;;;;;;;;;4995427;28;20852;-64
2021/06/05 14:06:43;;;;;;;3.87;3.57;;;;;;;;;;4993956;28;20451;-63
2021/06/05 14:09:12;;;;;;;4.23;3.80;;;;;;;;;;4988446;28;20459;-64
2021/06/05 14:11:38;;;;;;;4.47;4.03;;;;;;;;;;4979991;28;20485;-64
2021/06/05 14:14:05;;;;;;;4.03;3.63;;;;;;;;;;4995311;28;20443;-64
2021/06/05 14:16:32;;;;;;;4.23;3.93;;;;;;;;;;4994203;28;20540;-63
2021/06/05 14:18:58;;;;;;;4.00;3.67;;;;;;;;;;4995066;28;20454;-64
2021/06/05 14:21:25;;;;;;;4.00;3.70;;;;;;;;;;4994325;28;20470;-64
2021/06/05 14:23:53;;;;;;;4.50;4.17;;;;;;;;;;4987287;28;20574;-63
2021/06/05 14:26:20;;;;;;;3.77;3.40;;;;;;;;;;4987192;28;20462;-63
2021/06/05 14:28:47;;;;;;;3.97;3.57;;;;;;;;;;4995065;28;20472;-64
2021/06/05 14:31:15;;;;;;;4.47;4.10;;;;;;;;;;4995335;28;20487;-64
2021/06/05 14:33:42;;;;;;;5.00;4.60;;;;;;;;;;4994845;28;20446;-64
2021/06/05 14:36:09;;;;;;;4.60;4.13;;;;;;;;;;4996453;28;20446;-63
2021/06/05 14:38:36;;;;;;;4.40;4.00;;;;;;;;;;4997021;28;20455;-64
2021/06/05 14:41:04;;;;;;;4.87;4.47;;;;;;;;;;4998275;28;20459;-62
2021/06/05 14:43:32;;;;;;;4.40;4.00;;;;;;;;;;4997784;28;20489;-62
2021/06/05 14:45:59;;;;;;;4.00;3.70;;;;;;;;;;4995422;28;20469;-64